• Join FlightAware (Why Join?)
  • Login
  • US Flag 
07:04AM EDT


 

Airport Tracker/Info


-or-


 

Live Flight TrackerFlight Track Log ✈ FLG4208 ✈ 30-Apr-2013 ✈ KDTW - KAZO

Flight Track Log - Related Links

Times and Time Zones

All times are in EDT time to prevent confusion due to time zone crossing. See the FLG4208 flight status page for this flight to view local times or setup timezone preferences in your user account.

Time Position Orientation Groundspeed Altitude Reporting Facility
EDT Latitude Longitude Course Direction KTS MPH feet Rate Location/Type
10:51AM 42.2036 -83.3556 292° West 151 174 1,500  Level Cleveland Center
10:53AM 42.2368 -83.4709 291° West  Level FlightAware Approximate
10:53AM 42.2272 -83.5022 291° West 269 310 4,000  Level Cleveland Center
10:54AM 42.2519 -83.5878 291° West 265 305 4,000 1,380 Level Cleveland Center
10:55AM 42.2951 -83.6920 285° West  Level FlightAware Approximate
10:55AM 42.2769 -83.6703 292° West 257 296 6,600  Level Cleveland Center
10:56AM 42.3127 -83.7803 285° West  Level FlightAware Approximate
10:57AM 42.3365 -83.8659 292° West  Level FlightAware Approximate
10:57AM 42.3230 -83.8212 292° West  Level FlightAware Approximate
11:04AM 42.3586 -84.5858 258° West  Level FlightAware Approximate
11:04AM 42.1453 -84.4828 256° West 272 313 10,000  Level Chicago Center
11:05AM 42.3414 -84.6979 258° West  Level FlightAware Approximate
11:05AM 42.1083 -84.5689 240° Southwest 268 308 10,000  Level Chicago Center
11:06AM 42.3333 -84.8111 270° West  Level FlightAware Approximate
11:06AM 42.0639 -84.6572 236° Southwest 296 341 10,000  Level Chicago Center
11:07AM 42.3170 -84.9233 258° West  Level FlightAware Approximate
11:07AM 42.0147 -84.7531 235° Southwest 313 360 10,000  Level Chicago Center
11:08AM 42.2997 -85.0352 256° West  Level FlightAware Approximate
11:08AM 41.9561 -84.8636 235° Southwest 314 361 10,000  Level Chicago Center
11:09AM 42.2795 -85.1462 256° West  Level FlightAware Approximate
11:09AM 41.9058 -84.9586 235° Southwest 314 361 10,000  Level Chicago Center
11:10AM 41.8536 -85.0528 233° Southwest 315 362 10,000  Level Chicago Center
11:11AM 41.7842 -85.1275 219° Southwest 317 365 10,000  Level Chicago Center
11:12AM 41.7181 -85.2039 221° Southwest 316 364 10,100  Climbing Chicago Center
11:13AM 41.6786 -85.2986 241° Southwest 318 366 10,000  Descending Chicago Center
11:14AM 41.6994 -85.4319 282° West 316 364 10,100 -300 Climbing Chicago Center
11:15AM 41.7269 -85.5333 290° West 293 337 9,500 -1,200 Descending Chicago Center
11:16AM 41.7894 -85.5842 329° Northwest 279 321 7,700 -1,320 Descending Chicago Center
11:17AM 41.8689 -85.5803 North 284 327 6,800 -960 Descending Chicago Center
11:18AM 41.9467 -85.5739 North 281 323 5,800 -1,020 Descending Chicago Center
11:19AM 42.0250 -85.5689 North 281 323 4,800 -1,140 Descending Chicago Center
11:21AM 42.1167 -85.5611 North 276 318 3,500 -1,140 Descending Chicago Center
11:22AM 42.1839 -85.5706 354° North 253 291 2,500 -960 Descending Chicago Center